Time;durP1;ratioP1;P1;durP2;ratioP2;P2;SDS_P1;SDS_P2;PMS_P1;PMS_P2;Temp;Humidity;BMP_temperature;BMP_pressure;BME280_temperature;BME280_humidity;BME280_pressure;Samples;Min_cycle;Max_cycle;Signal;HPM_P1;HPM_P2
2021/03/21 00:00:45;;;;;;;7.70;6.38;;;5.90;99.90;;;;;;4147003;28;20088;-73
2021/03/21 00:02:47;;;;;;;7.70;6.50;;;5.90;99.90;;;;;;4147167;28;20064;-73
2021/03/21 00:04:48;;;;;;;8.45;5.40;;;5.90;99.90;;;;;;4147072;28;20030;-73
2021/03/21 00:06:49;;;;;;;7.00;5.75;;;5.90;99.90;;;;;;4146968;28;20492;-73
2021/03/21 00:08:49;;;;;;;8.73;5.00;;;5.90;99.90;;;;;;4137342;28;20030;-73
2021/03/21 00:10:56;;;;;;;6.05;4.32;;;5.90;99.90;;;;;;4146478;28;20171;-73
2021/03/21 00:12:57;;;;;;;6.32;4.05;;;5.90;99.90;;;;;;4145424;28;20389;-73
2021/03/21 00:14:58;;;;;;;6.55;4.93;;;5.90;99.90;;;;;;4144453;28;20026;-74
2021/03/21 00:16:59;;;;;;;8.32;4.70;;;5.80;99.90;;;;;;4147003;28;20139;-73
2021/03/21 00:19:01;;;;;;;4.90;4.40;;;5.90;99.90;;;;;;4138975;28;20066;-73
2021/03/21 00:21:02;;;;;;;4.25;3.85;;;5.80;99.90;;;;;;4144988;28;20022;-74
2021/03/21 00:23:04;;;;;;;5.90;4.68;;;5.90;99.90;;;;;;4145221;28;20049;-73
2021/03/21 00:25:08;;;;;;;5.22;4.60;;;5.90;99.90;;;;;;4146751;28;20057;-73
2021/03/21 00:27:09;;;;;;;5.97;4.90;;;5.80;99.90;;;;;;4146509;28;20099;-73
2021/03/21 00:29:10;;;;;;;7.10;4.53;;;5.80;99.90;;;;;;4142779;28;20053;-73
2021/03/21 00:31:13;;;;;;;4.88;4.47;;;5.70;99.90;;;;;;4146210;28;20036;-73
2021/03/21 00:33:17;;;;;;;4.75;4.28;;;5.70;99.90;;;;;;4146634;28;20022;-72
2021/03/21 00:35:18;;;;;;;5.80;3.90;;;5.70;99.90;;;;;;4146506;28;20034;-72
2021/03/21 00:37:19;;;;;;;5.82;4.38;;;5.60;99.90;;;;;;4146493;28;20045;-72
2021/03/21 00:39:19;;;;;;;6.43;4.57;;;5.50;99.90;;;;;;4146325;28;20033;-72
2021/03/21 00:41:24;;;;;;;6.50;4.53;;;5.50;99.90;;;;;;4146653;28;22740;-73
2021/03/21 00:43:25;;;;;;;5.38;4.50;;;5.50;99.90;;;;;;4146552;28;20037;-72
2021/03/21 00:45:27;;;;;;;5.13;4.68;;;5.60;99.90;;;;;;4145902;28;20037;-72
2021/03/21 00:47:28;;;;;;;7.32;4.60;;;5.60;99.90;;;;;;4146397;28;20049;-73
2021/03/21 00:49:28;;;;;;;5.05;4.55;;;5.60;99.90;;;;;;4139203;28;20124;-72
2021/03/21 00:51:29;;;;;;;6.88;4.43;;;5.60;99.90;;;;;;4145829;28;20037;-73
2021/03/21 00:53:30;;;;;;;4.50;4.10;;;5.60;99.90;;;;;;4146194;28;20042;-72
2021/03/21 00:55:30;;;;;;;8.23;5.18;;;5.70;99.90;;;;;;4146264;28;20350;-72
2021/03/21 00:57:32;;;;;;;6.55;4.70;;;5.70;99.90;;;;;;4145061;28;20034;-72
2021/03/21 00:59:32;;;;;;;7.72;4.35;;;5.70;99.90;;;;;;4146157;28;20042;-72
2021/03/21 01:01:33;;;;;;;6.22;5.07;;;5.60;99.90;;;;;;4144231;28;20034;-74
2021/03/21 01:03:34;;;;;;;6.97;5.43;;;5.50;99.90;;;;;;4144757;28;20045;-73
2021/03/21 01:05:38;;;;;;;9.10;6.05;;;5.60;99.90;;;;;;4144233;28;20092;-73
2021/03/21 01:07:39;;;;;;;8.80;6.55;;;5.60;99.90;;;;;;4142850;28;20030;-72
2021/03/21 01:09:39;;;;;;;5.53;4.93;;;5.60;99.90;;;;;;4137414;28;20058;-74
2021/03/21 01:11:41;;;;;;;7.18;4.60;;;5.60;99.90;;;;;;4139175;28;20045;-72
2021/03/21 01:13:43;;;;;;;6.35;3.83;;;5.60;99.90;;;;;;4140221;28;20389;-72
2021/03/21 01:15:43;;;;;;;5.15;4.40;;;5.60;99.90;;;;;;4141958;28;20087;-72
2021/03/21 01:17:44;;;;;;;5.47;4.55;;;5.70;99.90;;;;;;4141103;28;20033;-72
2021/03/21 01:19:44;;;;;;;6.38;5.22;;;5.60;99.90;;;;;;4138174;28;20049;-72
2021/03/21 01:21:46;;;;;;;5.32;4.60;;;5.50;99.90;;;;;;4139005;28;20705;-72
2021/03/21 01:23:47;;;;;;;5.50;4.95;;;5.50;99.90;;;;;;4143309;28;20038;-73
2021/03/21 01:25:48;;;;;;;8.00;5.68;;;5.40;99.90;;;;;;4143956;28;20103;-72
2021/03/21 01:27:49;;;;;;;5.45;4.90;;;5.40;99.90;;;;;;4142798;28;20034;-72
2021/03/21 01:29:49;;;;;;;7.05;4.90;;;5.50;99.90;;;;;;4141788;28;20034;-73
2021/03/21 01:31:50;;;;;;;6.03;5.00;;;5.50;99.90;;;;;;4144405;28;20064;-72
2021/03/21 01:33:52;;;;;;;6.78;5.38;;;5.50;99.90;;;;;;4144213;28;20429;-73
2021/03/21 01:35:53;;;;;;;6.53;4.95;;;5.50;99.90;;;;;;4137670;28;20038;-73
2021/03/21 01:37:54;;;;;;;5.85;5.35;;;5.50;99.90;;;;;;4144316;28;20119;-72
2021/03/21 01:39:55;;;;;;;6.65;5.30;;;5.60;99.90;;;;;;4152376;28;20603;-72
2021/03/21 01:42:03;;;;;;;5.47;4.97;;;5.60;99.90;;;;;;4144775;28;20042;-72
2021/03/21 01:44:09;;;;;;;6.13;5.00;;;5.60;99.90;;;;;;4142763;28;20041;-72
2021/03/21 01:46:18;;;;;;;7.65;5.35;;;5.50;99.90;;;;;;4145825;28;20068;-73
2021/03/21 01:48:39;;;;;;;7.75;5.80;;;5.60;99.90;;;;;;4142439;28;20519;-72
2021/03/21 01:50:43;;;;;;;6.00;5.40;;;5.80;99.90;;;;;;4147482;28;20038;-73
2021/03/21 01:52:45;;;;;;;5.80;5.20;;;5.70;99.90;;;;;;4145622;28;20048;-73
2021/03/21 01:54:45;;;;;;;8.50;6.20;;;5.70;99.90;;;;;;4143947;28;20045;-73
2021/03/21 01:56:47;;;;;;;6.18;5.57;;;5.70;99.90;;;;;;4144232;28;20501;-74
2021/03/21 01:58:57;;;;;;;6.68;5.95;;;5.70;99.90;;;;;;4136649;28;20045;-72
2021/03/21 02:01:00;;;;;;;8.82;6.97;;;5.70;99.90;;;;;;4144108;28;20065;-72
2021/03/21 02:03:01;;;;;;;7.90;6.65;;;5.70;99.90;;;;;;4145347;28;20393;-75
2021/03/21 02:05:03;;;;;;;7.85;6.97;;;5.70;99.90;;;;;;4136120;28;20065;-72
2021/03/21 02:07:04;;;;;;;7.78;6.47;;;5.70;99.90;;;;;;4145637;28;20034;-72
2021/03/21 02:09:23;;;;;;;9.27;7.22;;;5.70;99.90;;;;;;4145242;28;20049;-73
2021/03/21 02:11:31;;;;;;;8.43;7.53;;;5.70;99.90;;;;;;4140216;28;20115;-72
2021/03/21 02:13:47;;;;;;;7.97;7.10;;;5.70;99.90;;;;;;4145463;28;20061;-72
2021/03/21 02:16:02;;;;;;;9.45;8.45;;;5.60;99.90;;;;;;4135871;28;20041;-72
2021/03/21 02:18:25;;;;;;;9.52;8.52;;;5.70;99.90;;;;;;4141919;28;20068;-72
2021/03/21 02:21:08;;;;;;;8.82;7.93;;;5.70;99.90;;;;;;4142061;28;20030;-73
2021/03/21 02:23:09;;;;;;;9.30;7.30;;;5.70;99.90;;;;;;4139818;28;20388;-73
2021/03/21 02:25:21;;;;;;;10.98;7.90;;;5.60;99.90;;;;;;4135978;28;20057;-72
2021/03/21 02:27:30;;;;;;;10.02;8.50;;;5.70;99.90;;;;;;4140307;28;20026;-72
2021/03/21 02:29:35;;;;;;;10.57;8.98;;;5.60;99.90;;;;;;4142976;28;20044;-72
2021/03/21 02:31:48;;;;;;;9.70;8.70;;;5.60;99.90;;;;;;4144739;28;20034;-72
2021/03/21 02:34:00;;;;;;;10.43;9.32;;;5.70;99.90;;;;;;4144671;28;20463;-72
2021/03/21 02:36:22;;;;;;;11.55;8.95;;;5.70;99.90;;;;;;4142005;28;20072;-72
2021/03/21 02:38:31;;;;;;;10.30;9.18;;;5.80;99.90;;;;;;4159744;28;20045;-72
2021/03/21 02:40:46;;;;;;;11.00;9.07;;;5.80;99.90;;;;;;4146564;28;20034;-71
2021/03/21 02:42:58;;;;;;;9.48;8.48;;;5.80;99.90;;;;;;4139653;28;20469;-72
2021/03/21 02:45:24;;;;;;;12.70;9.95;;;5.80;99.90;;;;;;4143604;28;20103;-72
2021/03/21 02:47:28;;;;;;;10.88;8.82;;;5.80;99.90;;;;;;4145031;28;20034;-72
2021/03/21 02:49:34;;;;;;;10.93;8.68;;;5.80;99.90;;;;;;4142522;28;20032;-72
2021/03/21 02:51:39;;;;;;;11.98;9.60;;;5.80;99.90;;;;;;4141411;28;20049;-72
2021/03/21 02:53:48;;;;;;;13.60;10.73;;;5.80;99.90;;;;;;4145143;28;20496;-72
2021/03/21 02:55:51;;;;;;;15.05;11.70;;;5.80;99.90;;;;;;4147232;28;20034;-74
2021/03/21 02:58:10;;;;;;;12.63;9.55;;;5.70;99.90;;;;;;4139958;28;20037;-73
2021/03/21 03:00:12;;;;;;;15.85;11.35;;;5.80;99.90;;;;;;4141623;28;20137;-73
2021/03/21 03:02:21;;;;;;;14.00;10.88;;;5.80;99.90;;;;;;4139738;28;20524;-73
2021/03/21 03:04:27;;;;;;;12.35;10.15;;;5.80;99.90;;;;;;4142005;28;20044;-73
2021/03/21 03:06:34;;;;;;;14.18;11.20;;;5.80;99.90;;;;;;4147871;28;20125;-73
2021/03/21 03:08:43;;;;;;;14.43;11.82;;;5.80;99.90;;;;;;4143799;28;20037;-73
2021/03/21 03:11:06;;;;;;;15.93;12.38;;;5.80;99.90;;;;;;4144562;28;20463;-74
2021/03/21 03:13:15;;;;;;;14.55;11.77;;;5.70;99.90;;;;;;4143668;28;20050;-74
2021/03/21 03:15:18;;;;;;;15.35;11.15;;;5.70;99.90;;;;;;4146386;28;20042;-73
2021/03/21 03:17:28;;;;;;;15.75;12.07;;;5.80;99.90;;;;;;4144245;28;20049;-73
2021/03/21 03:19:37;;;;;;;16.95;11.82;;;5.80;99.90;;;;;;4141348;28;20093;-73
2021/03/21 03:21:53;;;;;;;17.23;12.40;;;5.80;99.90;;;;;;4146156;28;20058;-74
2021/03/21 03:24:17;;;;;;;16.90;13.40;;;5.70;99.90;;;;;;4142154;28;20045;-72
2021/03/21 03:26:31;;;;;;;;;;;5.70;99.90;;;;;;4139811;28;20461;-72
2021/03/21 03:28:40;;;;;;;;;;;5.60;99.90;;;;;;4145078;28;20360;-71
2021/03/21 03:31:09;;;;;;;19.20;12.30;;;5.60;99.90;;;;;;4144885;28;19913;-73
2021/03/21 03:33:10;;;;;;;19.35;12.80;;;5.60;99.90;;;;;;4143575;28;20040;-72
2021/03/21 03:35:14;;;;;;;18.95;13.30;;;5.60;99.90;;;;;;4146178;28;20034;-72
2021/03/21 03:37:14;;;;;;;19.38;14.48;;;5.60;99.90;;;;;;4147367;28;20125;-72
2021/03/21 03:39:16;;;;;;;23.70;15.20;;;5.60;99.90;;;;;;4145966;28;20444;-72
2021/03/21 03:41:33;;;;;;;24.02;14.45;;;5.70;99.90;;;;;;4132889;28;20572;-72
2021/03/21 03:44:15;;;;;;;22.02;13.43;;;5.70;99.90;;;;;;4143528;28;20527;-72
2021/03/21 03:46:23;;;;;;;19.38;13.45;;;5.80;99.90;;;;;;4121635;28;20053;-72
2021/03/21 03:48:45;;;;;;;17.88;11.90;;;5.80;99.90;;;;;;4145541;28;20033;-71
2021/03/21 03:50:57;;;;;;;23.83;16.42;;;5.90;99.90;;;;;;4154765;28;20095;-73
2021/03/21 03:53:23;;;;;;;18.08;11.52;;;5.90;99.90;;;;;;4138741;28;20038;-73
2021/03/21 03:55:51;;;;;;;19.35;12.05;;;5.90;99.90;;;;;;4146730;28;20099;-74
2021/03/21 03:57:59;;;;;;;21.55;13.63;;;6.00;99.90;;;;;;4142743;28;20535;-73
2021/03/21 04:00:19;;;;;;;19.98;13.05;;;6.00;99.90;;;;;;4144125;28;20042;-74
2021/03/21 04:02:28;;;;;;;19.20;12.13;;;6.00;99.90;;;;;;4142317;28;20096;-73
2021/03/21 04:04:40;;;;;;;24.92;14.00;;;5.90;99.90;;;;;;4145407;28;20041;-74
2021/03/21 04:07:05;;;;;;;21.52;14.27;;;5.90;99.90;;;;;;4145800;28;20042;-74
2021/03/21 04:09:21;;;;;;;26.27;16.50;;;5.90;99.90;;;;;;4145738;28;20034;-73
2021/03/21 04:11:32;;;;;;;26.92;16.63;;;5.90;99.90;;;;;;4145401;28;20045;-73
2021/03/21 04:13:41;;;;;;;26.23;16.55;;;5.90;99.90;;;;;;4145509;28;20034;-74
2021/03/21 04:15:47;;;;;;;24.27;13.90;;;6.00;99.90;;;;;;4145080;28;20082;-73
2021/03/21 04:18:00;;;;;;;26.35;16.63;;;6.00;99.90;;;;;;4145198;28;20069;-73
2021/03/21 04:20:23;;;;;;;25.02;14.65;;;6.10;99.90;;;;;;4144337;28;20076;-73
2021/03/21 04:22:29;;;;;;;24.83;15.35;;;6.10;99.90;;;;;;4143596;28;20030;-73
2021/03/21 04:24:39;;;;;;;24.50;15.77;;;6.10;99.90;;;;;;4145000;28;20502;-73
2021/03/21 04:26:45;;;;;;;24.40;15.25;;;6.10;99.90;;;;;;4142131;28;20456;-73
2021/03/21 04:29:12;;;;;;;27.65;15.52;;;6.10;99.90;;;;;;4145317;28;20745;-73
2021/03/21 04:31:14;;;;;;;28.17;16.60;;;6.10;99.90;;;;;;4145873;28;20741;-74
2021/03/21 04:33:19;;;;;;;28.42;15.85;;;6.10;99.90;;;;;;4138000;28;20042;-74
2021/03/21 04:35:19;;;;;;;25.80;15.82;;;6.10;99.90;;;;;;4146370;28;20084;-72
2021/03/21 04:37:22;;;;;;;28.08;16.27;;;6.10;99.90;;;;;;4142933;28;20034;-72
2021/03/21 04:39:29;;;;;;;23.90;15.70;;;6.20;99.90;;;;;;4145147;28;20462;-71
2021/03/21 04:41:38;;;;;;;28.80;14.82;;;6.10;99.90;;;;;;4146593;28;20038;-72
2021/03/21 04:44:04;;;;;;;23.58;14.10;;;6.20;99.90;;;;;;4146299;28;20038;-72
2021/03/21 04:46:14;;;;;;;27.38;15.43;;;6.10;99.90;;;;;;4141297;28;20041;-74
2021/03/21 04:48:19;;;;;;;20.05;13.02;;;6.10;99.90;;;;;;4146486;28;20116;-72
2021/03/21 04:50:20;;;;;;;22.73;12.35;;;6.10;99.90;;;;;;4146285;28;20038;-73
2021/03/21 04:52:42;;;;;;;22.55;11.57;;;6.10;99.90;;;;;;4146338;28;20500;-72
2021/03/21 04:54:46;;;;;;;22.55;10.80;;;6.20;99.90;;;;;;4138875;28;20034;-72
2021/03/21 04:56:55;;;;;;;18.27;10.70;;;6.20;99.90;;;;;;4143918;28;20026;-73
2021/03/21 04:59:02;;;;;;;24.50;12.77;;;6.20;99.90;;;;;;4140294;28;20697;-73
2021/03/21 05:01:21;;;;;;;20.90;9.77;;;6.20;99.90;;;;;;4144514;28;20030;-74
2021/03/21 05:03:50;;;;;;;16.73;9.50;;;6.20;99.90;;;;;;4144935;28;20141;-74
2021/03/21 05:06:00;;;;;;;20.20;9.60;;;6.20;99.90;;;;;;4143806;28;20089;-74
2021/03/21 05:08:07;;;;;;;14.98;9.10;;;6.30;99.90;;;;;;4146208;28;20038;-73
2021/03/21 05:10:32;;;;;;;20.55;9.23;;;6.30;99.90;;;;;;4145463;28;20370;-74
2021/03/21 05:12:47;;;;;;;13.38;7.63;;;6.30;99.90;;;;;;4146046;28;20030;-73
2021/03/21 05:14:54;;;;;;;11.25;6.78;;;6.30;99.90;;;;;;4138036;28;20283;-74
2021/03/21 05:17:02;;;;;;;14.10;5.88;;;6.30;99.90;;;;;;4153375;28;20029;-72
2021/03/21 05:19:26;;;;;;;17.23;5.70;;;6.40;99.90;;;;;;4145711;28;20444;-71
2021/03/21 05:21:34;;;;;;;;;;;6.40;99.90;;;;;;4143479;28;20116;-72
2021/03/21 05:23:42;;;;;;;12.75;5.32;;;6.40;99.90;;;;;;4144139;28;19920;-72
2021/03/21 05:25:58;;;;;;;12.32;5.13;;;6.40;99.90;;;;;;4145481;28;20558;-72
2021/03/21 05:28:31;;;;;;;10.55;5.05;;;6.40;99.90;;;;;;4143985;28;20041;-71
2021/03/21 05:30:34;;;;;;;11.50;4.53;;;6.40;99.90;;;;;;4135898;28;20435;-72
2021/03/21 05:32:37;;;;;;;13.35;4.18;;;6.40;99.90;;;;;;4144380;28;20021;-72
2021/03/21 05:34:38;;;;;;;16.55;4.68;;;6.40;99.90;;;;;;4146023;28;20121;-73
2021/03/21 05:36:58;;;;;;;6.78;3.92;;;6.40;99.90;;;;;;4145702;28;20026;-72
2021/03/21 05:39:05;;;;;;;10.93;4.30;;;6.40;99.90;;;;;;4135976;28;20068;-72
2021/03/21 05:41:23;;;;;;;15.65;5.05;;;6.40;99.90;;;;;;4138573;28;20041;-72
2021/03/21 05:43:52;;;;;;;15.32;4.45;;;6.40;99.90;;;;;;4145795;28;20037;-71
2021/03/21 05:46:23;;;;;;;12.77;4.28;;;6.40;99.90;;;;;;4160179;28;20037;-71
2021/03/21 05:48:58;;;;;;;12.68;4.90;;;6.40;99.90;;;;;;4143728;28;20038;-74
2021/03/21 05:51:17;;;;;;;7.57;3.80;;;6.50;99.90;;;;;;4145350;28;20113;-71
2021/03/21 05:54:00;;;;;;;23.75;5.55;;;6.50;99.90;;;;;;4145337;28;20508;-73
2021/03/21 05:56:22;;;;;;;9.15;3.70;;;6.50;99.90;;;;;;4142349;28;20041;-75
2021/03/21 05:58:38;;;;;;;13.68;4.63;;;6.50;99.90;;;;;;4145688;28;20053;-73
2021/03/21 06:00:54;;;;;;;11.10;4.55;;;6.50;99.90;;;;;;4131842;28;20397;-73
2021/03/21 06:03:19;;;;;;;8.75;4.22;;;6.50;99.90;;;;;;4143273;28;20041;-73
2021/03/21 06:05:42;;;;;;;12.20;4.20;;;6.50;99.90;;;;;;4139203;28;20062;-73
2021/03/21 06:08:03;;;;;;;12.48;3.22;;;6.40;99.90;;;;;;4145206;28;20042;-72
2021/03/21 06:10:22;;;;;;;11.43;4.15;;;6.50;99.90;;;;;;4145290;28;20472;-72
2021/03/21 06:12:29;;;;;;;7.07;3.63;;;6.60;99.90;;;;;;4143255;28;20041;-72
2021/03/21 06:14:55;;;;;;;12.88;3.75;;;6.60;99.90;;;;;;4147859;28;20038;-73
2021/03/21 06:17:33;;;;;;;11.27;3.45;;;6.60;99.90;;;;;;4148592;28;20568;-72
2021/03/21 06:19:53;;;;;;;9.60;4.35;;;6.60;99.90;;;;;;4154418;28;20400;-72
2021/03/21 06:22:00;;;;;;;12.23;4.03;;;6.60;99.90;;;;;;4147579;28;20045;-73
2021/03/21 06:24:17;;;;;;;9.90;3.28;;;6.60;99.90;;;;;;4143601;28;20045;-72
2021/03/21 06:26:46;;;;;;;7.63;3.40;;;6.50;99.90;;;;;;4148263;28;20125;-72
2021/03/21 06:29:14;;;;;;;20.10;4.32;;;6.60;99.90;;;;;;4145198;28;20485;-72
2021/03/21 06:31:59;;;;;;;12.00;4.22;;;6.60;99.90;;;;;;4148198;28;20026;-71
2021/03/21 06:34:26;;;;;;;12.52;4.88;;;6.60;99.90;;;;;;4148418;28;20038;-72
2021/03/21 06:37:23;;;;;;;16.88;4.03;;;6.70;99.90;;;;;;4148244;28;20392;-72
2021/03/21 06:39:51;;;;;;;8.65;3.28;;;6.70;99.90;;;;;;4130633;28;20045;-72
2021/03/21 06:42:20;;;;;;;13.20;6.03;;;6.70;99.90;;;;;;4127723;28;20140;-72
2021/03/21 06:44:44;;;;;;;12.35;3.90;;;6.80;99.90;;;;;;4132392;28;20042;-72
2021/03/21 06:47:04;;;;;;;;;;;6.80;99.90;;;;;;4145470;28;20036;-72
2021/03/21 06:49:36;;;;;;;18.00;5.28;;;6.80;99.90;;;;;;4146296;28;19936;-72
2021/03/21 06:52:00;;;;;;;7.40;3.22;;;6.80;99.90;;;;;;4145362;28;20058;-73
2021/03/21 06:54:33;;;;;;;15.18;5.03;;;6.80;99.90;;;;;;4145738;28;20489;-73
2021/03/21 06:57:24;;;;;;;16.38;7.18;;;6.80;99.90;;;;;;4147339;28;20500;-71
2021/03/21 06:59:34;;;;;;;7.20;3.20;;;6.80;99.90;;;;;;4144970;28;20038;-71
2021/03/21 07:01:49;;;;;;;14.35;6.25;;;6.90;99.90;;;;;;4144005;28;20058;-72
2021/03/21 07:04:09;;;;;;;14.30;6.47;;;6.90;99.90;;;;;;4145265;28;20117;-71
2021/03/21 07:06:52;;;;;;;12.50;4.93;;;6.90;99.90;;;;;;4144857;28;20057;-72
2021/03/21 07:09:07;;;;;;;14.70;4.32;;;7.00;99.90;;;;;;4144517;28;20030;-72
2021/03/21 07:11:47;;;;;;;11.32;3.35;;;7.00;99.90;;;;;;4146894;28;20034;-72
2021/03/21 07:14:09;;;;;;;21.25;7.47;;;7.00;99.90;;;;;;4149261;28;20028;-72
2021/03/21 07:16:28;;;;;;;18.40;3.72;;;7.10;99.90;;;;;;4146275;28;20072;-72
2021/03/21 07:19:00;;;;;;;14.20;4.85;;;7.20;99.90;;;;;;4161058;28;20124;-71
2021/03/21 07:21:26;;;;;;;16.90;6.15;;;7.30;99.90;;;;;;4144067;28;20044;-72
2021/03/21 07:23:57;;;;;;;13.23;3.70;;;7.30;99.90;;;;;;4145480;28;20042;-73
2021/03/21 07:26:25;;;;;;;13.18;5.13;;;7.40;99.90;;;;;;4160224;28;20051;-72
2021/03/21 07:28:56;;;;;;;19.45;3.75;;;7.40;99.90;;;;;;4144153;28;20462;-73
2021/03/21 07:31:18;;;;;;;14.43;7.35;;;7.50;99.90;;;;;;4144778;28;20026;-72
2021/03/21 07:33:42;;;;;;;11.60;3.72;;;7.60;99.90;;;;;;4144482;28;20030;-73
2021/03/21 07:35:51;;;;;;;19.98;6.88;;;7.60;99.90;;;;;;4146985;28;20038;-72
2021/03/21 07:38:01;;;;;;;11.98;3.72;;;7.70;99.90;;;;;;4144772;28;20049;-72
2021/03/21 07:40:20;;;;;;;10.02;3.95;;;7.70;99.90;;;;;;4146138;28;20034;-73
2021/03/21 07:42:35;;;;;;;14.27;3.78;;;7.70;99.90;;;;;;4144761;28;20652;-72
2021/03/21 07:44:42;;;;;;;16.20;3.90;;;7.70;99.90;;;;;;4146776;28;20033;-71
2021/03/21 07:47:08;;;;;;;17.38;4.43;;;7.80;99.90;;;;;;4146859;28;20037;-72
2021/03/21 07:49:33;;;;;;;11.07;3.83;;;7.80;99.90;;;;;;4145233;28;20096;-73
2021/03/21 07:52:08;;;;;;;13.05;4.22;;;7.90;99.90;;;;;;4144257;28;20049;-72
2021/03/21 07:54:29;;;;;;;9.65;3.50;;;8.10;99.90;;;;;;4144069;28;20083;-71
2021/03/21 07:56:42;;;;;;;18.17;4.82;;;8.10;99.90;;;;;;4146066;28;20053;-72
2021/03/21 07:58:52;;;;;;;7.70;3.70;;;8.10;99.90;;;;;;4143364;28;20406;-72
2021/03/21 08:00:55;;;;;;;12.23;5.05;;;8.10;99.90;;;;;;4161067;28;20061;-71
2021/03/21 08:03:20;;;;;;;21.38;3.97;;;8.10;99.90;;;;;;4144034;28;20045;-71
2021/03/21 08:05:23;;;;;;;17.90;4.15;;;8.10;99.90;;;;;;4144876;28;20489;-71
2021/03/21 08:07:33;;;;;;;16.00;4.75;;;8.00;99.90;;;;;;4144428;28;20034;-72
2021/03/21 08:09:38;;;;;;;16.50;4.97;;;8.00;99.90;;;;;;4144045;28;20029;-72
2021/03/21 08:11:44;;;;;;;11.32;4.55;;;7.90;99.90;;;;;;4142029;28;20030;-72
2021/03/21 08:13:50;;;;;;;21.38;4.97;;;8.00;99.90;;;;;;4144149;28;20037;-72
2021/03/21 08:15:51;;;;;;;15.35;4.38;;;8.00;99.90;;;;;;4145692;28;20040;-71
2021/03/21 08:17:57;;;;;;;20.50;5.80;;;7.90;99.90;;;;;;4143700;28;20038;-72
2021/03/21 08:20:03;;;;;;;14.65;4.75;;;8.00;99.90;;;;;;4142859;28;20040;-72
2021/03/21 08:22:13;;;;;;;14.15;5.35;;;8.00;99.90;;;;;;4141468;28;20038;-72
2021/03/21 08:24:21;;;;;;;16.30;4.53;;;8.00;99.90;;;;;;4138040;28;20042;-72
2021/03/21 08:26:27;;;;;;;22.00;5.05;;;8.10;99.90;;;;;;4139065;28;20049;-72
2021/03/21 08:28:36;;;;;;;22.02;5.55;;;8.10;99.90;;;;;;4144342;28;20061;-72
2021/03/21 08:30:55;;;;;;;26.83;8.05;;;8.10;99.90;;;;;;4144401;28;20412;-72
2021/03/21 08:33:00;;;;;;;25.30;5.40;;;8.30;99.90;;;;;;4139587;28;20490;-72
2021/03/21 08:35:21;;;;;;;26.90;5.97;;;8.40;99.90;;;;;;4142306;28;21879;-74
2021/03/21 08:37:41;;;;;;;26.33;5.95;;;8.60;99.90;;;;;;4140509;28;20049;-71
2021/03/21 08:39:45;;;;;;;18.02;5.10;;;8.60;99.90;;;;;;4141475;28;20538;-71
2021/03/21 08:41:54;;;;;;;25.33;6.45;;;8.50;99.90;;;;;;4141258;28;20046;-72
2021/03/21 08:44:01;;;;;;;25.13;5.47;;;8.60;99.90;;;;;;4141758;28;20054;-72
2021/03/21 08:46:02;;;;;;;30.08;6.90;;;8.50;99.90;;;;;;4129244;28;20038;-71
2021/03/21 08:48:12;;;;;;;32.00;7.57;;;8.40;99.90;;;;;;4138032;28;20038;-71
2021/03/21 08:50:39;;;;;;;25.35;5.55;;;8.50;99.90;;;;;;4142445;28;20534;-73
2021/03/21 08:52:43;;;;;;;21.80;6.13;;;8.40;99.90;;;;;;4151605;28;20109;-72
2021/03/21 08:54:51;;;;;;;27.40;5.90;;;8.30;99.90;;;;;;4152137;28;20045;-72
2021/03/21 08:57:00;;;;;;;25.10;5.95;;;8.30;99.90;;;;;;4142054;28;20038;-73
2021/03/21 08:59:37;;;;;;;28.50;6.82;;;8.40;99.90;;;;;;4135640;28;20042;-72
2021/03/21 09:01:38;;;;;;;20.48;4.90;;;8.50;99.90;;;;;;4140067;28;20027;-71
2021/03/21 09:03:40;;;;;;;23.52;8.30;;;8.60;99.90;;;;;;4145014;28;20030;-73
2021/03/21 09:05:52;;;;;;;21.90;6.78;;;8.60;99.90;;;;;;4145873;28;20033;-72
2021/03/21 09:08:07;;;;;;;27.40;6.28;;;8.60;99.90;;;;;;4140423;28;20030;-72
2021/03/21 09:10:10;;;;;;;28.70;7.10;;;8.60;99.90;;;;;;4138428;28;20034;-72
2021/03/21 09:12:40;;;;;;;23.63;6.97;;;8.60;99.90;;;;;;4143800;28;20026;-72
2021/03/21 09:14:40;;;;;;;24.25;6.35;;;8.60;99.90;;;;;;4140386;28;20030;-72
2021/03/21 09:16:57;;;;;;;30.40;7.10;;;8.70;99.90;;;;;;4139842;28;20477;-72
2021/03/21 09:19:18;;;;;;;22.20;6.28;;;8.70;99.90;;;;;;4144526;28;20038;-72
2021/03/21 09:21:26;;;;;;;31.40;7.43;;;8.70;99.90;;;;;;4138466;28;20037;-72
2021/03/21 09:23:29;;;;;;;28.25;8.25;;;8.50;99.90;;;;;;4142475;28;20066;-71
2021/03/21 09:25:32;;;;;;;22.70;6.07;;;8.50;99.90;;;;;;4143298;28;20046;-71
2021/03/21 09:27:38;;;;;;;35.20;6.68;;;8.30;99.90;;;;;;4144379;28;20026;-72
2021/03/21 09:29:40;;;;;;;28.02;7.13;;;8.20;99.90;;;;;;4142341;28;20573;-70
2021/03/21 09:31:41;;;;;;;29.17;8.13;;;8.10;99.90;;;;;;4144407;28;20063;-71
2021/03/21 09:33:50;;;;;;;23.67;6.90;;;8.00;99.90;;;;;;4145709;28;20041;-71
2021/03/21 09:36:03;;;;;;;36.38;8.52;;;8.10;99.90;;;;;;4144727;28;20113;-71
2021/03/21 09:38:12;;;;;;;27.63;7.80;;;8.30;99.90;;;;;;4143657;28;20041;-71
2021/03/21 09:40:31;;;;;;;21.95;6.13;;;8.50;99.90;;;;;;4132089;28;20409;-71
2021/03/21 09:42:32;;;;;;;37.67;8.05;;;8.50;99.90;;;;;;4149075;28;20481;-71
2021/03/21 09:44:38;;;;;;;29.15;7.93;;;8.50;99.90;;;;;;4144670;28;20037;-71
2021/03/21 09:47:16;;;;;;;27.83;8.48;;;8.60;99.90;;;;;;4143321;28;20531;-71
2021/03/21 09:49:37;;;;;;;23.30;6.53;;;8.90;99.90;;;;;;4120985;28;20053;-73
2021/03/21 09:52:02;;;;;;;29.52;6.97;;;9.00;99.90;;;;;;4147906;28;20144;-73
2021/03/21 09:54:41;;;;;;;26.88;7.10;;;9.00;99.90;;;;;;4141624;28;20446;-72
2021/03/21 09:57:05;;;;;;;22.15;6.22;;;9.10;99.90;;;;;;4144678;28;20038;-71
2021/03/21 09:59:43;;;;;;;30.77;7.45;;;9.40;99.90;;;;;;4141644;28;20038;-71
2021/03/21 10:01:59;;;;;;;37.50;6.75;;;9.50;99.90;;;;;;4145791;28;20033;-71
2021/03/21 10:04:15;;;;;;;25.55;6.35;;;9.40;99.90;;;;;;4145427;28;20117;-71
2021/03/21 10:06:25;;;;;;;19.63;5.78;;;9.30;99.90;;;;;;4143537;28;20033;-71
2021/03/21 10:08:45;;;;;;;22.75;5.95;;;9.30;99.90;;;;;;4160388;28;20097;-71
2021/03/21 10:11:15;;;;;;;27.33;6.20;;;9.10;99.90;;;;;;4144062;28;20535;-71
2021/03/21 10:13:35;;;;;;;30.67;6.82;;;9.10;99.90;;;;;;4142523;28;20034;-72
2021/03/21 10:16:08;;;;;;;23.15;6.82;;;9.00;99.90;;;;;;4145512;28;20034;-71
2021/03/21 10:18:55;;;;;;;30.35;6.72;;;8.90;99.90;;;;;;4128910;28;20120;-71
2021/03/21 10:21:03;;;;;;;21.92;7.13;;;8.70;99.90;;;;;;4158853;28;20042;-71
2021/03/21 10:23:04;;;;;;;18.35;7.05;;;8.60;99.90;;;;;;4144779;28;20030;-71
2021/03/21 10:25:28;;;;;;;27.92;7.88;;;8.50;99.90;;;;;;4136424;28;20714;-72
2021/03/21 10:27:36;;;;;;;29.63;6.95;;;8.50;99.90;;;;;;4143280;28;20054;-72
2021/03/21 10:29:40;;;;;;;26.77;6.32;;;8.50;99.90;;;;;;4141853;28;20120;-71
2021/03/21 10:31:40;;;;;;;;;;;8.60;99.90;;;;;;4138356;28;20061;-72
2021/03/21 10:33:41;;;;;;;20.42;6.03;;;8.80;99.90;;;;;;4138770;28;19921;-71
2021/03/21 10:35:42;;;;;;;23.85;7.25;;;9.00;99.90;;;;;;4144094;28;20555;-72
2021/03/21 10:37:42;;;;;;;25.77;8.20;;;9.10;99.90;;;;;;4145261;28;20041;-72
2021/03/21 10:39:43;;;;;;;33.05;7.18;;;9.40;99.90;;;;;;4145227;28;20513;-72
2021/03/21 10:42:06;;;;;;;20.95;5.20;;;9.50;99.90;;;;;;4145163;28;20030;-72
2021/03/21 10:44:07;;;;;;;30.52;8.55;;;9.60;99.90;;;;;;4145111;28;20038;-72
2021/03/21 10:46:08;;;;;;;22.02;6.78;;;9.60;99.90;;;;;;4145029;28;20045;-71
2021/03/21 10:48:14;;;;;;;21.70;6.65;;;9.40;99.90;;;;;;4145178;28;20026;-71
2021/03/21 10:50:43;;;;;;;27.70;6.88;;;9.10;99.90;;;;;;4144721;28;20030;-71
2021/03/21 10:52:45;;;;;;;27.75;7.38;;;8.90;99.90;;;;;;4151960;28;20038;-72
2021/03/21 10:54:45;;;;;;;35.13;7.47;;;8.90;99.90;;;;;;4139739;28;20041;-71
2021/03/21 10:57:22;;;;;;;32.60;9.05;;;9.00;99.90;;;;;;4144882;28;20033;-72
2021/03/21 10:59:25;;;;;;;21.33;8.25;;;9.20;99.90;;;;;;4142519;28;20033;-72
2021/03/21 11:01:32;;;;;;;19.42;6.53;;;9.60;99.90;;;;;;4147951;28;20026;-73
2021/03/21 11:03:33;;;;;;;23.13;5.65;;;9.80;99.90;;;;;;4143124;28;20120;-72
2021/03/21 11:05:43;;;;;;;24.92;6.07;;;9.90;99.90;;;;;;4146250;28;20029;-72
2021/03/21 11:07:44;;;;;;;30.30;6.22;;;9.70;99.90;;;;;;4146383;28;20026;-72
2021/03/21 11:10:12;;;;;;;28.65;8.00;;;9.50;99.90;;;;;;4145125;28;20057;-72
2021/03/21 11:12:15;;;;;;;23.73;6.53;;;9.50;99.90;;;;;;4139774;28;20034;-71
2021/03/21 11:14:27;;;;;;;30.20;6.88;;;9.50;99.90;;;;;;4142582;28;20120;-71
2021/03/21 11:16:28;;;;;;;26.92;6.72;;;9.50;99.90;;;;;;4139435;28;20034;-72
2021/03/21 11:18:32;;;;;;;31.67;8.05;;;9.50;99.90;;;;;;4146170;28;20036;-72
2021/03/21 11:20:37;;;;;;;27.65;7.55;;;9.40;99.90;;;;;;4140939;28;20037;-72
2021/03/21 11:22:40;;;;;;;21.23;6.15;;;9.30;99.90;;;;;;4144891;28;20054;-72
2021/03/21 11:24:41;;;;;;;22.77;5.97;;;9.30;99.90;;;;;;4143823;28;20053;-72
2021/03/21 11:26:42;;;;;;;27.60;6.85;;;9.10;99.90;;;;;;4160883;28;20542;-73
2021/03/21 11:28:45;;;;;;;23.20;6.30;;;8.90;99.90;;;;;;4145746;28;20045;-72
2021/03/21 11:30:58;;;;;;;39.45;7.25;;;9.10;99.90;;;;;;4146045;28;20081;-72